Central Virginia Flyers


Central Virginia Flyers is a 10 member flying club based in Richmond, VA at Hanover County Airport (KOFP). We own N787AT, a 1977 Cessna 172 with 180hp conversion. If you are interested in membership, please contact Brenton at [email protected]


Aviation Digital Data Service (ADDS)

Output produced by METARs form (0456 UTC 24 January 2017)
found at http://aviationweather.gov/adds/metars/
 
KOFP 240454Z AUTO VRB05G16KT 10SM OVC010 04/04 A2946 RMK AO2 RAE29 CIG 007V015 SLP977 P0001 T00390039 401060039 $
KRIC 240454Z 35012KT 7SM OVC012 04/03 A2943 RMK AO2 RAE23 SLP973 P0000 T00440033 401170044
KRIC 240440Z 2405/2424 35014G21KT 4SM -RA BR OVC012 
     TEMPO 2405/2409 2SM -RA BR BKN006 
     FM241000 32010KT P6SM VCSH OVC010 
     FM241200 32009KT P6SM OVC015 
     FM241600 32011KT P6SM BKN045 
     FM242000 31011KT P6SM SCT250